• Join FlightAware (Why Join?)
  • Login
  • US Flag 
09:37PM EDT


 

Airport Tracker/Info


-or-


 

Live Flight TrackerFlight Track Log ✈ NKS647 ✈ 29-Apr-2014 ✈ KIAG - KFLL

Flight Track Log - Related Links

Times and Time Zones

All times are in EDT time to prevent confusion due to time zone crossing. See the NKS647 flight status page for this flight to view local times or setup timezone preferences in your user account.

Time Position Orientation Groundspeed Altitude Reporting Facility
EDT Latitude Longitude Course Direction KTS MPH feet Rate Location/Type
01:50AM 43.1054 -78.9878 235° Southwest 172 198 1,800  Level FlightAware ADS-B (CYYZ)
01:50AM 43.1035 -78.9907 225° Southwest 173 199 1,800 1,320 Level FlightAware ADS-B (CYYZ)
01:50AM 43.0998 -78.9948 216° Southwest 174 200 2,000 2,100 Climbing FlightAware ADS-B (CYYZ)
01:50AM 43.0892 -79.0037 211° Southwest 189 217 2,500 2,100 Climbing FlightAware ADS-B (CYYZ)
01:50AM 43.0850 -79.0063 203° Southwest 189 217 2,700 2,400 Climbing FlightAware ADS-B (CYYZ)
01:50AM 43.0812 -79.0079 193° South 191 220 2,900 2,400 Climbing FlightAware ADS-B (CYYZ)
01:50AM 43.0773 -79.0084 182° South 190 219 3,100 3,000 Climbing FlightAware ADS-B (CYYZ)
01:50AM 43.0720 -79.0078 171° South 190 219 3,400 3,300 Climbing FlightAware ADS-B (CYYZ)
01:50AM 43.0686 -79.0069 168° South 194 223 3,600 2,760 Climbing FlightAware ADS-B (CYKZ)
01:51AM 43.0583 -79.0035 165° South 204 235 4,100 2,760 Climbing FlightAware ADS-B (CYYZ)
01:51AM 43.0441 -78.9978 162° South 222 255 4,800 2,580 Climbing FlightAware ADS-B (CYYZ)
01:51AM 43.0288 -78.9912 162° South 245 282 5,400 2,760 Climbing FlightAware ADS-B (CYYZ)
01:51AM 43.0119 -78.9838 162° South 260 299 6,200 3,600 Climbing FlightAware ADS-B (CYYZ)
01:52AM 42.9946 -78.9759 161° South 265 305 7,200 4,200 Climbing FlightAware ADS-B (CYYZ)
01:52AM 42.9766 -78.9679 162° South 267 307 8,300 3,780 Climbing FlightAware ADS-B (CYYZ)
01:52AM 42.9598 -78.9608 162° South 273 314 9,100 2,760 Climbing FlightAware ADS-B (CYYZ)
01:52AM 42.9400 -78.9526 163° South 295 339 9,700 1,740 Climbing FlightAware ADS-B (CYYZ)
01:53AM 42.9191 -78.9441 163° South 322 371 10,000 1,320 Climbing FlightAware ADS-B (CYYZ)
01:53AM 42.9104 -78.9405 163° South 333 383 10,200 3,060 Climbing FlightAware ADS-B (CYKZ)
01:53AM 42.8748 -78.9258 163° South 338 389 11,500 3,240 Climbing FlightAware ADS-B (CYYZ)
01:53AM 42.8402 -78.9113 163° South 183 211 12,700 2,880 Climbing FlightAware ADS-B (CYKF)
01:54AM 42.8285 -78.9064 163° South 352 405 13,000 2,520 Climbing FlightAware ADS-B (CYYZ)
01:54AM 42.7808 -78.8866 162° South 369 425 14,300 2,640 Climbing FlightAware ADS-B (CYYZ)
01:54AM 42.8402 -78.9113 163° South 376 433 15,200 2,640 Climbing FlightAware ADS-B (CYKF)
01:55AM 42.7314 -78.8662 163° South 382 440 15,600 2,700 Climbing FlightAware ADS-B (CYYZ)
01:55AM 42.6786 -78.8446 163° South 392 451 17,000 2,880 Climbing FlightAware ADS-B (CYYZ)
01:56AM 42.6273 -78.8234 162° South 393 452 18,500 3,180 Climbing FlightAware ADS-B (CYYZ)
01:56AM 42.5748 -78.8017 163° South 390 449 20,200 2,580 Climbing FlightAware ADS-B (CYYZ)
01:57AM 42.5219 -78.7802 163° South 406 467 21,100 1,800 Climbing FlightAware ADS-B (CYYZ)
01:57AM 42.4690 -78.7600 169° South 413 475 22,000 1,920 Climbing FlightAware ADS-B (CYYZ)
01:57AM 42.4483 -78.7580 181° South 408 470 22,400 2,580 Climbing FlightAware ADS-B (CYYZ)
01:57AM 42.4443 -78.7582 185° South 404 465 22,700 2,400 Climbing FlightAware ADS-B (CYKZ)
01:58AM 42.3935 -78.7645 185° South 406 467 23,600 1,980 Climbing FlightAware ADS-B (CYYZ)
01:58AM 42.3359 -78.7707 185° South 417 480 24,500 1,620 Climbing FlightAware ADS-B (CYYZ)
01:58AM 42.3232 -78.7719 184° South 420 483 24,600 1,980 Climbing FlightAware ADS-B (CYKZ)
01:59AM 42.2771 -78.7766 185° South 423 487 25,500 2,160 Climbing FlightAware ADS-B (CYYZ)
01:59AM 42.2178 -78.7828 185° South 424 488 26,600 1,860 Climbing FlightAware ADS-B (CYYZ)
02:00AM 42.1583 -78.7891 185° South 431 496 27,400 1,620 Climbing FlightAware ADS-B (CYYZ)
02:00AM 42.1003 -78.7952 185° South 435 501 28,200 1,800 Climbing FlightAware ADS-B (CYYZ)
02:01AM 42.0391 -78.8016 185° South 435 501 29,200 1,860 Climbing FlightAware ADS-B (CYYZ)
02:01AM 41.9787 -78.8079 185° South 436 502 30,100 1,620 Climbing FlightAware ADS-B (CYYZ)
02:02AM 41.9175 -78.8144 185° South 438 504 30,900 1,560 Climbing FlightAware ADS-B (CYYZ)
02:02AM 41.8577 -78.8205 185° South 439 505 31,700 1,920 Climbing FlightAware ADS-B (CYYZ)
02:03AM 41.7984 -78.8266 185° South 431 496 32,800 1,860 Climbing FlightAware ADS-B (CYYZ)
02:03AM 41.7387 -78.8327 185° South 430 495 33,600 1,560 Climbing FlightAware ADS-B (CYYZ)
02:04AM 41.6790 -78.8390 185° South 428 493 34,400 1,560 Climbing FlightAware ADS-B (CYYZ)
02:04AM 41.6192 -78.8452 185° South 426 490 35,200 1,500 Climbing FlightAware ADS-B (CYYZ)
02:05AM 41.5612 -78.8512 185° South 425 489 35,900 1,500 Climbing FlightAware ADS-B (CYYZ)
02:05AM 41.5405 -78.8533 185° South 434 499 36,200 1,560 Climbing FlightAware ADS-B (KWWD)
02:05AM 41.5019 -78.8572 185° South 424 488 36,700 960 Climbing FlightAware ADS-B (CYYZ)
02:06AM 41.4433 -78.8633 185° South 418 481 37,000 420 Climbing FlightAware ADS-B (CYYZ)
02:06AM 41.4240 -78.8652 185° South 417 480 37,000  Level FlightAware ADS-B (CYKZ)
02:06AM 41.3860 -78.8693 185° South 419 482 37,000  Level FlightAware ADS-B (CYYZ)
02:06AM 41.3551 -78.8725 185° South 423 487 37,000  Level FlightAware ADS-B (KWWD)
02:07AM 41.3274 -78.8755 185° South 424 488 37,000  Level FlightAware ADS-B (CYYZ)
02:07AM 41.2907 -78.8790 185° South 423 487 37,000  Level FlightAware ADS-B (KWWD)
02:07AM 41.2700 -78.8811 185° South 422 486 37,000  Level FlightAware ADS-B (CYYZ)
02:08AM 41.2113 -78.8869 185° South 418 481 37,000  Level FlightAware ADS-B (CYYZ)
02:08AM 41.2200 -78.8860 184° South 415 478 37,000  Level FlightAware ADS-B (CYKZ)
02:08AM 41.1534 -78.8928 185° South 415 478 37,000  Level FlightAware ADS-B (CYYZ)
02:09AM 41.0955 -78.8989 185° South 413 475 37,000  Level FlightAware ADS-B (CYYZ)
02:09AM 41.0391 -78.9046 185° South 412 474 37,000  Level FlightAware ADS-B (CYYZ)
02:10AM 41.0040 -78.9082 185° South 403 464 37,000  Level FlightAware ADS-B (KWWD)
02:10AM 40.9828 -78.9104 185° South 411 473 37,000  Level FlightAware ADS-B (CYYZ)
02:10AM 40.9254 -78.9161 185° South 412 474 37,000 -240 Level FlightAware ADS-B (CYYZ)
02:10AM 40.9243 -78.9162 185° South 403 464 36,900  Descending FlightAware ADS-B (KWWD)
02:11AM 40.8686 -78.9218 185° South 414 476 37,000 120 Climbing FlightAware ADS-B (CYYZ)
02:11AM 40.8521 -78.9235 185° South 406 467 37,000  Level FlightAware ADS-B (KWWD)
02:11AM 40.7870 -78.9301 185° South 407 468 37,000  Level FlightAware ADS-B (KWWD)
02:12AM 40.7638 -78.9325 185° South 415 478 37,000  Level FlightAware ADS-B (CYYZ)
02:12AM 40.7306 -78.9358 184° South 416 479 37,000  Level FlightAware ADS-B (KWWD)
02:12AM 40.7047 -78.9384 185° South 416 479 37,000  Level FlightAware ADS-B (CYYZ)
02:13AM 40.6567 -78.9433 185° South 417 480 37,000  Level FlightAware ADS-B (KWWD)
02:13AM 40.6479 -78.9442 185° South 418 481 37,000  Level FlightAware ADS-B (CYYZ)
02:13AM 40.5970 -78.9492 184° South 419 482 37,000  Level FlightAware ADS-B (KWWD)
02:13AM 40.5891 -78.9500 185° South 420 483 37,000  Level FlightAware ADS-B (CYYZ)
02:14AM 40.5385 -78.9549 184° South 419 482 37,000  Level FlightAware ADS-B (KWWD)
02:14AM 40.5322 -78.9556 185° South 419 482 37,000  Level FlightAware ADS-B (CYYZ)
02:14AM 40.4739 -78.9615 185° South 420 483 37,000  Level FlightAware ADS-B (CYYZ)
02:15AM 40.4157 -78.9673 185° South 420 483 37,000  Level FlightAware ADS-B (CYYZ)
02:15AM 40.3754 -78.9713 184° South 421 484 37,000  Level FlightAware ADS-B (KWWD)
02:15AM 40.3572 -78.9731 185° South 421 484 37,000  Level FlightAware ADS-B (CYYZ)
02:16AM 40.2989 -78.9788 185° South 420 483 37,000  Level FlightAware ADS-B (CYYZ)
02:16AM 40.2414 -78.9844 185° South 420 483 37,000  Level FlightAware ADS-B (CYYZ)
02:17AM 40.1870 -78.9900 185° South 418 481 37,000  Level FlightAware ADS-B (CYYZ)
02:17AM 40.1500 -78.9937 184° South 418 481 37,000  Level FlightAware ADS-B (KWWD)
02:17AM 40.1251 -78.9963 185° South 417 480 37,000  Level FlightAware ADS-B (CYYZ)
02:17AM 40.0927 -78.9996 184° South 418 481 37,000  Level FlightAware ADS-B (KWWD)
02:18AM 40.0728 -79.0016 185° South 417 480 37,000  Level FlightAware ADS-B (CYYZ)
02:18AM 40.0166 -79.0069 184° South 419 482 37,000  Level FlightAware ADS-B (KWWD)
02:18AM 39.9713 -79.0114 185° South 417 480 37,000  Level FlightAware ADS-B (CYYZ)
02:19AM 39.9397 -79.0145 184° South 418 481 37,000  Level FlightAware ADS-B (KWWD)
02:19AM 39.8819 -79.0202 184° South 418 481 37,000  Level FlightAware ADS-B (KWWD)
02:20AM 39.8232 -79.0259 184° South 419 482 37,000  Level FlightAware ADS-B (KWWD)
02:20AM 39.7467 -79.0334 184° South 419 482 37,000  Level FlightAware ADS-B (KWWD)
02:21AM 39.6845 -79.0395 184° South 419 482 37,000  Level FlightAware ADS-B (KWWD)
02:22AM 39.6095 -79.0469 184° South 418 481 37,000  Level FlightAware ADS-B (KWWD)
02:22AM 39.5499 -79.0526 184° South 418 481 37,000  Level FlightAware ADS-B (KWWD)
02:23AM 39.4801 -79.0592 184° South 417 480 37,000 180 Level FlightAware ADS-B (KWWD)
02:23AM 39.4216 -79.0649 184° South 418 481 37,200 840 Climbing FlightAware ADS-B (KWWD)
02:24AM 39.3581 -79.0711 184° South 416 479 37,900 720 Climbing FlightAware ADS-B (KWWD)
02:24AM 39.3001 -79.0768 185° South 405 466 38,000 60 Climbing FlightAware ADS-B (KWWD)
02:25AM 39.2261 -79.0841 184° South 405 466 38,000  Level FlightAware ADS-B (KWWD)
02:25AM 39.1677 -79.0897 184° South 417 480 38,000  Level FlightAware ADS-B (KWWD)
02:26AM 39.1091 -79.0953 184° South 418 481 38,000  Level FlightAware ADS-B (KWWD)
02:27AM 39.0342 -79.1025 184° South 421 484 38,000  Level FlightAware ADS-B (KWWD)
02:27AM 38.9717 -79.1081 184° South 423 487 38,000  Level FlightAware ADS-B (KWWD)
02:28AM 38.8958 -79.1155 184° South 416 479 38,000  Level FlightAware ADS-B (KWWD)
02:28AM 38.8400 -79.1208 185° South 417 480 38,000  Level FlightAware ADS-B (KWWD)
02:29AM 38.7791 -79.1267 184° South 417 480 38,000  Level FlightAware ADS-B (KWWD)
02:29AM 38.7176 -79.1326 184° South 417 480 38,000  Level FlightAware ADS-B (KWWD)
02:30AM 38.6597 -79.1381 184° South 417 480 38,000  Level FlightAware ADS-B (KWWD)
02:30AM 38.5989 -79.1439 184° South 418 481 38,000  Level FlightAware ADS-B (KWWD)
02:31AM 38.5394 -79.1496 184° South 418 481 38,000  Level FlightAware ADS-B (KWWD)
02:32AM 38.4487 -79.1581 184° South 418 481 38,000  Level FlightAware ADS-B (KWWD)
02:32AM 38.3850 -79.1639 184° South 417 480 38,000  Level FlightAware ADS-B (KWWD)
02:33AM 38.2508 -79.1822 184° South 424 488 38,000  Level Washington Center
02:40AM 37.5010 -79.2461 184° South 423 487 38,000  Level FlightAware ADS-B (KWWD)
02:40AM 37.4106 -79.2497 184° South 430 495 38,000  Level Washington Center
02:41AM 37.3017 -79.2628 185° South 441 507 38,000  Level Washington Center
02:42AM 37.1844 -79.2756 185° South 441 507 38,000 -60 Level Washington Center
02:43AM 37.0650 -79.2853 184° South 441 507 37,900  Descending Washington Center
02:44AM 36.9458 -79.2953 184° South 441 507 38,000  Climbing Washington Center
02:45AM 36.8244 -79.3075 185° South 441 507 38,000  Level Washington Center
02:46AM 36.6928 -79.3194 184° South 447 514 38,000  Level Washington Center
02:47AM 36.5714 -79.3317 185° South 442 509 38,000  Level Washington Center
02:48AM 36.4478 -79.3414 184° South 442 509 38,000  Level Washington Center
02:49AM 36.3411 -79.3542 186° South 442 509 38,000  Level Washington Center
02:50AM 36.2197 -79.3664 185° South 442 509 38,000  Level Washington Center
02:51AM 36.0961 -79.3758 184° South 447 514 38,000  Level Washington Center
02:52AM 35.9728 -79.3881 185° South 447 514 38,000  Level Washington Center
02:53AM 35.8450 -79.3997 184° South 447 514 38,000  Level Washington Center
02:54AM 35.7239 -79.4094 184° South 447 514 38,000  Level Washington Center
02:55AM 35.6003 -79.4186 183° South 447 514 38,000  Level Washington Center
02:56AM 35.4725 -79.4331 185° South 447 514 38,000  Level Washington Center
02:57AM 35.3492 -79.4425 184° South 447 514 38,000  Level Washington Center
02:58AM 35.2278 -79.4519 184° South 442 509 38,000  Level Washington Center
03:00AM 34.9875 -79.4722 184° South 430 495 38,000  Level Jacksonville Center
03:01AM 34.8667 -79.4844 185° South 430 495 38,000  Level Jacksonville Center
03:02AM 34.7439 -79.4919 183° South 435 501 38,000  Level Jacksonville Center
03:03AM 34.6211 -79.5019 184° South 440 506 38,000  Level Jacksonville Center
03:04AM 34.5025 -79.5139 185° South 440 506 38,000  Level Jacksonville Center
03:05AM 34.3797 -79.5239 184° South 440 506 38,000  Level Jacksonville Center
03:06AM 34.2547 -79.5311 183° South 440 506 38,000  Level Jacksonville Center
03:07AM 34.1467 -79.5428 185° South 440 506 38,000  Level Jacksonville Center
03:08AM 34.0236 -79.5500 183° South 445 512 38,000 -60 Level Jacksonville Center
03:09AM 33.9031 -79.5622 185° South 440 506 37,900 -60 Descending Jacksonville Center
03:10AM 33.7822 -79.5692 183° South 440 506 37,900  Level Jacksonville Center
03:11AM 33.6572 -79.5814 185° South 440 506 37,900  Level Jacksonville Center
03:12AM 33.5344 -79.5936 185° South 440 506 38,000  Climbing Jacksonville Center
03:13AM 33.4136 -79.6006 183° South 440 506 38,000 -60 Level Jacksonville Center
03:14AM 33.2908 -79.6125 185° South 440 506 37,900  Descending Jacksonville Center
03:15AM 33.1658 -79.6222 184° South 440 506 38,000  Climbing Jacksonville Center
03:16AM 33.0431 -79.6339 185° South 440 506 38,000  Level Jacksonville Center
03:17AM 32.9181 -79.6411 183° South 440 506 38,000  Level Jacksonville Center
03:18AM 32.7911 -79.6531 185° South 440 506 38,000 -60 Level Jacksonville Center
03:19AM 32.6681 -79.6622 184° South 440 506 37,900 -60 Descending Jacksonville Center
03:20AM 32.5431 -79.6742 185° South 445 512 37,900  Level Jacksonville Center
03:21AM 32.4183 -79.6858 185° South 445 512 37,900  Level Jacksonville Center
03:22AM 32.2953 -79.6953 184° South 445 512 38,000  Climbing Jacksonville Center
03:23AM 32.1578 -79.7075 184° South 450 518 38,000 -60 Level Jacksonville Center
03:24AM 32.0328 -79.7142 183° South 450 518 37,900  Descending Jacksonville Center
03:25AM 31.9097 -79.7258 185° South 450 518 38,000  Climbing Jacksonville Center
03:26AM 31.7828 -79.7375 184° South 450 518 38,000  Level Jacksonville Center
03:27AM 31.6556 -79.7467 184° South 455 524 38,000 -60 Level Jacksonville Center
03:28AM 31.5286 -79.7583 184° South 460 529 37,900  Descending Jacksonville Center
03:29AM 31.4017 -79.7697 184° South 460 529 38,000  Climbing Jacksonville Center
03:30AM 31.2869 -79.7761 183° South 460 529 38,000  Level Jacksonville Center
03:31AM 31.1619 -79.7875 184° South 460 529 38,000  Level Jacksonville Center
03:32AM 31.0286 -79.7967 183° South 471 542 38,000  Level Jacksonville Center
03:34AM 30.7811 -79.8142 183° South 471 542 38,000 -60 Level Miami Center
03:35AM 30.6494 -79.8247 184° South 478 550 37,900  Descending Miami Center
03:36AM 30.5181 -79.8333 183° South 478 550 38,000  Climbing Miami Center
03:42AM 29.7858 -79.8918 184° South 479 551 38,000  Level FlightAware ADS-B (KMCO)
03:43AM 29.5889 -79.9066 184° South 479 551 38,000  Level FlightAware ADS-B (KMCO)
03:44AM 29.4896 -79.9143 184° South 478 550 38,000  Level FlightAware ADS-B (KMCO)
03:45AM 29.4005 -79.9211 184° South 477 549 38,000  Level FlightAware ADS-B (KMCO)
03:45AM 29.3184 -79.9272 184° South 475 547 38,000  Level FlightAware ADS-B (KMCO)
03:46AM 29.2411 -79.9331 184° South 475 547 38,000  Level FlightAware ADS-B (KMCO)
03:46AM 29.1420 -79.9406 184° South 476 548 38,000  Level FlightAware ADS-B (KMCO)
03:48AM 28.9722 -79.9535 184° South 473 544 38,000  Level FlightAware ADS-B (KMCO)
03:49AM 28.8733 -79.9611 184° South 471 542 38,000  Level FlightAware ADS-B (KMCO)
03:49AM 28.7868 -79.9676 184° South 469 540 38,000  Level FlightAware ADS-B (KMCO)
03:50AM 28.6987 -79.9741 184° South 469 540 38,000  Level FlightAware ADS-B (KMCO)
03:51AM 28.5841 -79.9825 184° South 469 540 38,000  Level FlightAware ADS-B (KMCO)
03:52AM 28.4823 -79.9901 184° South 470 541 38,000  Level FlightAware ADS-B (KMCO)
03:52AM 28.3946 -79.9968 184° South 470 541 38,000  Level FlightAware ADS-B (KMCO)
03:53AM 28.3060 -80.0034 184° South 469 540 38,000  Level FlightAware ADS-B (KMCO)
03:54AM 28.2215 -80.0097 184° South 468 539 38,000  Level FlightAware ADS-B (KMCO)
03:54AM 28.1425 -80.0156 184° South 468 539 38,000 -240 Level FlightAware ADS-B (KMCO)
03:55AM 28.0469 -80.0227 184° South 471 542 37,700 -1,440 Descending FlightAware ADS-B (KMCO)
03:55AM 27.9731 -80.0283 184° South 471 542 36,100 -2,580 Descending FlightAware ADS-B (KMCO)
03:56AM 27.8722 -80.0353 183° South 470 541 34,300 -2,460 Descending FlightAware ADS-B (KMCO)
03:57AM 27.7853 -80.0419 184° South 464 534 32,700 -2,400 Descending FlightAware ADS-B (KMCO)
03:58AM 27.6989 -80.0482 184° South 455 524 31,100 -2,340 Descending FlightAware ADS-B (KMCO)
03:58AM 27.6218 -80.0537 184° South 447 514 29,600 -2,340 Descending FlightAware ADS-B (KMCO)
03:59AM 27.5601 -80.0584 184° South 441 507 28,100 -2,340 Descending FlightAware ADS-B (KMCO)
03:59AM 27.4667 -80.0656 184° South 431 496 26,700 -2,340 Descending FlightAware ADS-B (KMCO)
04:00AM 27.3448 -80.0743 184° South 420 483 24,400 -2,280 Descending FlightAware ADS-B (KMCO)
04:01AM 27.2454 -80.0813 184° South 410 472 22,400 -2,220 Descending FlightAware ADS-B (KMCO)
04:02AM 27.1454 -80.0888 184° South 401 461 20,500 -2,220 Descending FlightAware ADS-B (KMCO)
04:03AM 27.0869 -80.0930 184° South 394 453 19,300 -1,800 Descending FlightAware ADS-B (RJTF)
04:03AM 27.0606 -80.0949 184° South 393 452 18,700 -2,220 Descending FlightAware ADS-B (RJTF)
04:05AM 26.9057 -80.1060 184° South 368 423 15,500 -2,400 Descending FlightAware ADS-B (RJTF)
04:05AM 26.8536 -80.1097 184° South 360 414 14,500 -2,220 Descending FlightAware ADS-B (RJTF)
04:06AM 26.8055 -80.1133 184° South 351 404 13,300 -2,100 Descending FlightAware ADS-B (RJTF)
04:06AM 26.7581 -80.1169 184° South 342 394 12,400 -2,040 Descending FlightAware ADS-B (RJTF)
04:07AM 26.7067 -80.1207 184° South 335 386 11,300 -1,860 Descending FlightAware ADS-B (RJTF)
04:07AM 26.6661 -80.1235 184° South 326 375 10,500 -1,140 Descending FlightAware ADS-B (RJTF)
04:08AM 26.6019 -80.1284 185° South 292 336 9,900 -1,080 Descending FlightAware ADS-B (RJTF)
04:08AM 26.5768 -80.1304 184° South 289 333 9,500 -1,440 Descending FlightAware ADS-B (RJTF)
04:08AM 26.5612 -80.1316 184° South 285 328 9,200 -1,200 Descending FlightAware ADS-B (RJTF)
04:09AM 26.5458 -80.1328 184° South 282 325 8,900 -1,440 Descending FlightAware ADS-B (RJTF)
04:09AM 26.5295 -80.1339 183° South 278 320 8,500 -1,440 Descending FlightAware ADS-B (RJTF)
04:09AM 26.5024 -80.1356 183° South 280 322 8,200 -1,020 Descending FlightAware ADS-B (RJTF)
04:09AM 26.4890 -80.1365 184° South 281 323 8,000 -420 Descending FlightAware ADS-B (RJTF)
04:10AM 26.4684 -80.1379 184° South 282 325 8,000 -480 Level FlightAware ADS-B (RJTF)
04:10AM 26.4089 -80.1528 184° South 286 329 7,600 -1,200 Descending Miami Center
04:11AM 26.3411 -80.1928 208° Southwest 276 318 6,000 -1,620 Descending Miami Center
04:12AM 26.2694 -80.2161 196° South 276 318 4,400 -1,560 Descending Miami Center
04:13AM 26.2022 -80.2350 194° South 263 303 2,900 -1,320 Descending Miami Center
04:14AM 26.1369 -80.2517 193° South 258 297 1,800 -600 Descending Miami Center
04:15AM 26.0847 -80.2550 183° South 232 267 1,700 -600 Descending Miami Center
04:16AM 26.0775 -80.2083 100° East 135 155 700 -900 Descending Miami Center
04:16AM 26.0756 -80.2014 107° East 116 133 600 -420 Descending Miami Center
04:18AM 26.0667 -80.1500 190° South  Level FlightAware Approximate
04:25AM 26.0726 -80.1527 190° South  Level Estimated